Time;durP1;ratioP1;P1;durP2;ratioP2;P2;SDS_P1;SDS_P2;PMS_P1;PMS_P2;Temp;Humidity;BMP_temperature;BMP_pressure;BME280_temperature;BME280_humidity;BME280_pressure;Samples;Min_cycle;Max_cycle;Signal;HPM_P1;HPM_P2
2021/12/13 00:01:47;;;;;;;317.30;175.20;;;;;;;-7.50;96.66;99783.11;102473;1313;61450;-78
2021/12/13 00:04:31;;;;;;;315.40;175.70;;;;;;;-7.48;96.87;99789.02;102268;1313;75303;-78
2021/12/13 00:07:04;;;;;;;336.40;178.80;;;;;;;-7.46;96.84;99793.36;102387;1311;69351;-79
2021/12/13 00:09:37;;;;;;;320.10;178.60;;;;;;;-7.45;96.88;99797.34;102361;1310;73516;-78
2021/12/13 00:12:05;;;;;;;315.40;176.00;;;;;;;-7.46;96.99;99795.61;102357;1310;61316;-78
2021/12/13 00:14:36;;;;;;;318.90;175.50;;;;;;;-7.44;96.96;99793.39;102640;1310;61218;-79
2021/12/13 00:17:11;;;;;;;312.40;173.40;;;;;;;-7.42;96.87;99801.20;101722;1314;1003530;-78
2021/12/13 00:19:44;;;;;;;310.10;166.00;;;;;;;-7.43;96.67;99797.04;102398;1310;69459;-80
2021/12/13 00:22:20;;;;;;;309.30;171.40;;;;;;;-7.43;96.67;99798.42;102451;1310;72679;-79
2021/12/13 00:24:48;;;;;;;308.30;165.50;;;;;;;-7.46;96.56;99806.84;102324;1313;61364;-78
2021/12/13 00:27:18;;;;;;;306.40;167.50;;;;;;;-7.48;96.72;99811.63;102441;1310;61353;-79
2021/12/13 00:29:54;;;;;;;300.30;158.60;;;;;;;-7.49;96.90;99816.61;102621;1307;76449;-77
2021/12/13 00:32:31;;;;;;;307.50;166.60;;;;;;;-7.49;97.00;99818.67;102606;1308;70529;-79
2021/12/13 00:35:02;;;;;;;317.20;170.50;;;;;;;-7.50;96.80;99817.63;102315;1313;73226;-79
2021/12/13 00:37:35;;;;;;;329.20;176.80;;;;;;;-7.54;96.65;99818.77;102629;1307;61302;-79
2021/12/13 00:40:05;;;;;;;335.10;179.50;;;;;;;-7.59;96.57;99817.11;102553;1308;61885;-78
2021/12/13 00:42:40;;;;;;;323.70;168.80;;;;;;;-7.63;96.46;99816.34;102519;1307;75222;-79
2021/12/13 00:45:11;;;;;;;315.90;161.70;;;;;;;-7.73;96.30;99817.72;102499;1307;70643;-77
2021/12/13 00:47:42;;;;;;;326.60;174.10;;;;;;;-7.75;96.25;99814.20;102524;1311;72568;-79
2021/12/13 00:50:15;;;;;;;309.10;169.40;;;;;;;-7.79;96.26;99813.79;101806;1307;1003702;-78
2021/12/13 00:52:46;;;;;;;328.70;174.40;;;;;;;-7.82;96.38;99814.08;102542;1308;61402;-78
2021/12/13 00:55:17;;;;;;;332.70;177.50;;;;;;;-7.81;96.50;99815.14;102533;1308;76635;-78
2021/12/13 00:57:47;;;;;;;321.70;171.00;;;;;;;-7.84;96.26;99812.66;102356;1314;69319;-78
2021/12/13 01:00:30;;;;;;;319.90;166.30;;;;;;;-7.90;96.03;99809.27;102523;1311;72929;-76
2021/12/13 01:03:03;;;;;;;309.50;165.50;;;;;;;-7.98;95.92;99813.24;102487;1308;61431;-77
2021/12/13 01:06:07;;;;;;;310.70;166.90;;;;;;;-8.02;95.91;99820.74;102558;1307;61392;-77
2021/12/13 01:09:12;;;;;;;310.30;170.00;;;;;;;-8.03;96.22;99817.45;102554;1307;76056;-78
2021/12/13 01:11:50;;;;;;;321.50;175.50;;;;;;;-8.03;96.42;99820.21;102547;1306;69380;-78
2021/12/13 01:14:33;;;;;;;327.80;175.10;;;;;;;-7.96;96.78;99822.77;102577;1307;73443;-79
2021/12/13 01:17:17;;;;;;;326.30;177.50;;;;;;;-7.92;96.86;99820.77;102605;1308;61418;-80
2021/12/13 01:19:54;;;;;;;327.80;173.70;;;;;;;-7.94;96.56;99821.41;102562;1307;61737;-79
2021/12/13 01:22:46;;;;;;;332.10;172.90;;;;;;;-7.95;96.64;99817.45;101802;1307;1003714;-80
2021/12/13 01:28:28;;;;;;;332.60;174.60;;;;;;;-7.97;96.43;99818.11;102540;1307;72522;-78
2021/12/13 01:31:03;;;;;;;324.30;173.70;;;;;;;-8.01;96.35;99818.54;101835;1307;1003604;-79
2021/12/13 01:33:31;;;;;;;294.70;157.90;;;;;;;-8.04;96.36;99821.73;102511;1308;61298;-80
2021/12/13 01:36:01;;;;;;;293.20;161.90;;;;;;;-8.05;96.26;99815.50;102257;1314;73999;-78
2021/12/13 01:38:35;;;;;;;294.10;161.60;;;;;;;-8.08;96.14;99802.33;102534;1308;69940;-79
2021/12/13 01:41:11;;;;;;;294.20;164.00;;;;;;;-8.08;96.37;99796.84;102458;1311;73241;-79
2021/12/13 01:43:42;;;;;;;286.70;154.60;;;;;;;-8.08;96.31;99798.20;102513;1308;61412;-79
2021/12/13 01:46:09;;;;;;;282.60;152.30;;;;;;;-8.13;96.00;99793.27;102603;1307;61437;-78
2021/12/13 01:48:44;;;;;;;270.40;146.50;;;;;;;-8.18;95.74;99795.74;102633;1308;75333;-78
2021/12/13 01:51:16;;;;;;;291.60;155.70;;;;;;;-8.22;95.67;99794.83;102233;1313;69387;-81
2021/12/13 01:53:48;;;;;;;278.80;152.50;;;;;;;-8.26;95.70;99795.23;102611;1307;74690;-80
2021/12/13 01:56:46;;;;;;;305.90;159.40;;;;;;;-8.28;95.92;99795.88;102644;1308;61317;-78
2021/12/13 01:59:40;;;;;;;298.20;161.20;;;;;;;-8.28;96.06;99807.77;102546;1311;61465;-78
2021/12/13 02:02:27;;;;;;;301.80;161.00;;;;;;;-8.28;96.17;99817.60;102513;1308;76230;-80
2021/12/13 02:05:17;;;;;;;304.50;159.80;;;;;;;-8.22;96.35;99818.59;101854;1316;69419;-80
2021/12/13 02:07:53;;;;;;;291.50;160.40;;;;;;;-8.20;96.21;99813.64;101833;1320;73255;-77
2021/12/13 02:10:34;;;;;;;278.30;155.10;;;;;;;-8.18;96.35;99808.01;101074;1316;1003217;-80
2021/12/13 02:13:06;;;;;;;278.60;154.80;;;;;;;-8.14;96.32;99805.66;101817;1316;61421;-79
2021/12/13 02:18:28;;;;;;;294.50;156.60;;;;;;;-8.13;96.20;99803.27;101829;1316;69274;-79
2021/12/13 02:21:04;;;;;;;277.50;154.50;;;;;;;-8.15;96.20;99792.36;101862;1316;72779;-79
2021/12/13 02:23:34;;;;;;;281.80;154.60;;;;;;;-8.17;96.15;99786.83;101849;1316;61350;-78
2021/12/13 02:26:01;;;;;;;;;;;;;;;-8.20;96.09;99780.88;101991;1316;61328;-79
2021/12/13 02:28:31;;;;;;;284.10;150.90;;;;;;;-8.25;96.11;99778.71;101563;1320;75632;-79
2021/12/13 02:31:03;;;;;;;279.30;158.90;;;;;;;-8.29;95.94;99784.66;101161;1316;1002963;-79
2021/12/13 02:33:39;;;;;;;286.20;156.30;;;;;;;-8.33;95.88;99784.21;101866;1322;72268;-79
2021/12/13 02:36:16;;;;;;;295.40;162.10;;;;;;;-8.37;95.94;99785.17;101993;1316;61353;-79
2021/12/13 02:38:47;;;;;;;305.60;162.00;;;;;;;-8.36;96.15;99788.15;101817;1316;62099;-78
2021/12/13 02:41:17;;;;;;;285.20;162.80;;;;;;;-8.34;96.14;99789.71;101868;1316;75519;-78
2021/12/13 02:43:45;;;;;;;;;;;;;;;-8.32;96.20;99789.43;102263;1310;70505;-77
2021/12/13 02:46:13;;;;;;;289.70;161.40;;;;;;;-8.32;96.27;99792.00;102440;1310;73331;-81
2021/12/13 02:48:43;;;;;;;309.10;162.60;;;;;;;-8.33;96.08;99790.95;102834;1311;61364;-79
2021/12/13 02:51:09;;;;;;;;;;;;;;;-8.34;96.11;99790.25;103393;1310;61921;-78
2021/12/13 02:53:41;;;;;;;271.20;149.10;;;;;;;-8.35;96.05;99794.87;103417;1311;61311;-79
2021/12/13 02:56:11;;;;;;;282.40;151.50;;;;;;;-8.34;96.22;99789.20;102664;1311;69467;-79
2021/12/13 02:58:40;;;;;;;286.30;154.40;;;;;;;-8.31;96.44;99793.74;102557;1310;74298;-77
2021/12/13 03:01:13;;;;;;;298.70;156.50;;;;;;;-8.29;96.46;99788.10;102627;1313;61314;-79
2021/12/13 03:03:47;;;;;;;281.90;155.50;;;;;;;-8.27;96.45;99785.39;102478;1311;61995;-79
2021/12/13 03:06:24;;;;;;;277.80;152.20;;;;;;;-8.30;96.17;99784.98;102661;1310;75302;-79
2021/12/13 03:09:00;;;;;;;294.10;158.20;;;;;;;-8.32;96.06;99783.55;102429;1311;67570;-79
2021/12/13 03:11:32;;;;;;;278.00;154.10;;;;;;;-8.35;96.05;99782.98;102403;1310;73976;-77
2021/12/13 03:14:10;;;;;;;275.90;144.00;;;;;;;-8.37;96.09;99778.46;102366;1310;61725;-79
2021/12/13 03:17:02;;;;;;;287.30;152.00;;;;;;;-8.45;95.81;99772.63;102421;1310;61379;-79
2021/12/13 03:19:38;;;;;;;285.50;155.30;;;;;;;-8.54;95.85;99775.54;101814;1317;76524;-78
2021/12/13 03:22:35;;;;;;;287.40;152.30;;;;;;;-8.57;95.85;99777.53;101578;1322;69801;-79
2021/12/13 03:25:04;;;;;;;280.00;153.70;;;;;;;-8.56;95.99;99779.46;101831;1320;73286;-80
2021/12/13 03:27:53;;;;;;;273.70;145.30;;;;;;;-8.60;95.71;99780.40;101409;1322;61517;-78
2021/12/13 03:30:25;;;;;;;293.90;154.50;;;;;;;-8.65;95.73;99777.70;101839;1319;62176;-79
2021/12/13 03:33:03;;;;;;;310.70;154.40;;;;;;;-8.62;96.11;99788.29;101064;1319;1003510;-79
2021/12/13 03:35:38;;;;;;;296.60;150.30;;;;;;;-8.61;95.98;99790.18;101845;1319;70264;-78
2021/12/13 03:38:19;;;;;;;288.80;152.40;;;;;;;-8.62;96.10;99792.60;101966;1317;73311;-75
2021/12/13 03:40:48;;;;;;;291.20;154.20;;;;;;;-8.63;96.03;99795.52;101815;1320;61413;-78
2021/12/13 03:43:24;;;;;;;274.40;139.30;;;;;;;-8.61;96.20;99796.23;101846;1320;61495;-78
2021/12/13 03:45:55;;;;;;;314.70;153.00;;;;;;;-8.65;96.14;99794.77;101863;1317;75321;-78
2021/12/13 03:48:25;;;;;;;316.80;160.00;;;;;;;-8.64;96.42;99789.10;101936;1317;70487;-79
2021/12/13 03:50:55;;;;;;;293.90;146.50;;;;;;;-8.56;96.37;99787.05;101922;1319;73562;-78
2021/12/13 03:53:27;;;;;;;294.10;154.30;;;;;;;-8.58;96.06;99786.98;101119;1319;1003516;-79
2021/12/13 03:56:02;;;;;;;299.20;159.90;;;;;;;-8.60;95.97;99790.23;101901;1317;61378;-78
2021/12/13 03:58:35;;;;;;;296.50;149.00;;;;;;;-8.61;95.83;99788.98;102360;1310;74553;-78
2021/12/13 04:01:10;;;;;;;294.90;150.20;;;;;;;-8.69;95.47;99791.58;102157;1313;68724;-77
2021/12/13 04:03:39;;;;;;;259.20;137.30;;;;;;;-8.72;95.46;99799.75;102412;1310;73320;-80
2021/12/13 04:06:06;;;;;;;324.00;160.40;;;;;;;-8.78;95.47;99804.79;102391;1313;61445;-79
2021/12/13 04:08:35;;;;;;;322.90;161.30;;;;;;;-8.76;95.85;99803.97;102210;1312;61368;-78
2021/12/13 04:11:12;;;;;;;311.00;161.40;;;;;;;-8.73;95.99;99808.36;102424;1314;76980;-79
2021/12/13 04:13:49;;;;;;;313.30;159.00;;;;;;;-8.69;96.14;99810.35;102485;1310;70311;-78
2021/12/13 04:16:35;;;;;;;306.70;160.70;;;;;;;-8.64;96.23;99821.16;102395;1310;73561;-78
2021/12/13 04:19:08;;;;;;;318.10;162.60;;;;;;;-8.62;96.17;99822.56;102147;1313;61425;-78
2021/12/13 04:21:55;;;;;;;323.90;166.10;;;;;;;-8.60;96.20;99825.19;102450;1310;62157;-80
2021/12/13 04:24:31;;;;;;;304.90;156.30;;;;;;;-8.58;96.11;99828.00;102487;1314;76233;-77
2021/12/13 04:27:04;;;;;;;311.20;161.50;;;;;;;-8.62;95.96;99827.39;102303;1310;70470;-78
2021/12/13 04:29:37;;;;;;;297.60;163.20;;;;;;;-8.65;95.93;99823.70;102475;1307;71228;-78
2021/12/13 04:32:31;;;;;;;321.40;161.90;;;;;;;-8.66;95.93;99821.96;102547;1307;61393;-78
2021/12/13 04:35:03;;;;;;;306.50;154.80;;;;;;;-8.64;95.92;99823.19;102606;1307;61301;-78
2021/12/13 04:37:38;;;;;;;284.40;146.10;;;;;;;-8.66;95.72;99820.73;102554;1307;76426;-79
2021/12/13 04:40:10;;;;;;;321.90;161.20;;;;;;;-8.73;95.66;99822.64;102599;1307;70863;-79
2021/12/13 04:42:39;;;;;;;307.70;158.40;;;;;;;-8.75;95.95;99821.73;102382;1307;222605;-80
2021/12/13 04:45:17;;;;;;;309.30;156.10;;;;;;;-8.76;95.87;99822.41;101864;1307;1003605;-79
2021/12/13 04:47:53;;;;;;;298.00;159.20;;;;;;;-8.73;96.17;99819.20;101914;1308;1003509;-78
2021/12/13 04:50:28;;;;;;;311.70;159.60;;;;;;;-8.71;96.13;99820.63;102294;1313;75464;-79
2021/12/13 04:52:56;;;;;;;335.20;163.90;;;;;;;-8.70;96.27;99822.20;102560;1311;69492;-78
2021/12/13 04:55:31;;;;;;;316.00;162.70;;;;;;;-8.70;96.14;99821.34;102528;1311;72811;-80
2021/12/13 04:58:00;;;;;;;305.30;159.10;;;;;;;-8.74;96.05;99819.68;102575;1311;61384;-77
2021/12/13 05:00:33;;;;;;;303.40;156.00;;;;;;;-8.78;95.91;99819.10;102589;1312;61403;-78
2021/12/13 05:03:02;;;;;;;298.70;160.30;;;;;;;-8.79;96.09;99818.39;102241;1315;76433;-79
2021/12/13 05:05:32;;;;;;;311.50;158.50;;;;;;;-8.78;95.91;99819.60;102613;1311;69619;-78
2021/12/13 05:07:59;;;;;;;297.30;158.50;;;;;;;-8.79;95.82;99817.48;102601;1311;73197;-78
2021/12/13 05:10:26;;;;;;;330.50;167.10;;;;;;;-8.80;95.77;99821.77;102636;1311;61400;-79
2021/12/13 05:13:17;;;;;;;321.20;166.10;;;;;;;-8.81;95.86;99819.34;102655;1307;61295;-78
2021/12/13 05:16:08;;;;;;;323.10;168.60;;;;;;;-8.77;96.06;99813.59;102354;1313;73680;-79
2021/12/13 05:18:47;;;;;;;347.50;174.40;;;;;;;-8.73;96.08;99816.61;102317;1314;67682;-80
2021/12/13 05:21:37;;;;;;;351.00;173.30;;;;;;;-8.71;96.08;99813.92;102626;1314;73128;-78
2021/12/13 05:24:16;;;;;;;346.60;180.70;;;;;;;-8.68;95.98;99820.89;102646;1307;61305;-79
2021/12/13 05:26:45;;;;;;;359.80;185.70;;;;;;;-8.64;96.21;99817.70;102683;1307;61335;-80
2021/12/13 05:29:41;;;;;;;362.60;184.20;;;;;;;-8.58;96.12;99818.85;102696;1308;73645;-79
2021/12/13 05:32:16;;;;;;;352.40;179.30;;;;;;;-8.57;96.10;99817.85;102733;1307;70263;-80
2021/12/13 05:34:48;;;;;;;348.00;180.10;;;;;;;-8.52;96.27;99820.89;102720;1308;74176;-79
2021/12/13 05:37:16;;;;;;;334.30;176.80;;;;;;;-8.47;96.30;99823.60;102770;1307;61504;-79
2021/12/13 05:40:17;;;;;;;331.30;172.10;;;;;;;-8.42;96.20;99820.44;102200;1307;1003191;-77
2021/12/13 05:42:56;;;;;;;333.30;172.50;;;;;;;-8.40;96.07;99815.45;102318;1320;75209;-79
2021/12/13 05:45:41;;;;;;;321.90;167.20;;;;;;;-8.41;96.08;99820.62;102425;1319;69296;-78
2021/12/13 05:48:22;;;;;;;328.00;166.40;;;;;;;-8.37;96.14;99827.23;102515;1316;73592;-78
2021/12/13 05:50:58;;;;;;;307.60;160.80;;;;;;;-8.32;96.11;99825.09;102544;1316;61336;-80
2021/12/13 05:53:29;;;;;;;305.10;161.80;;;;;;;-8.31;95.96;99826.51;102513;1319;61276;-80
2021/12/13 05:56:09;;;;;;;299.70;156.60;;;;;;;-8.26;96.18;99833.50;103211;1322;75166;-79
2021/12/13 05:58:44;;;;;;;301.60;158.10;;;;;;;-8.23;95.95;99836.66;103237;1316;69561;-78
2021/12/13 06:01:25;;;;;;;297.30;159.30;;;;;;;-8.21;95.81;99829.64;103124;1316;73231;-79
2021/12/13 06:04:06;;;;;;;315.50;160.10;;;;;;;-8.17;95.96;99830.27;103351;1316;61308;-79
2021/12/13 06:06:47;;;;;;;301.40;162.40;;;;;;;-8.09;96.01;99841.29;102446;1316;61435;-79
2021/12/13 06:09:42;;;;;;;296.40;158.60;;;;;;;-8.03;96.02;99840.73;102015;1316;75337;-79
2021/12/13 06:12:31;;;;;;;306.40;164.20;;;;;;;-7.94;96.13;99847.64;101980;1316;70342;-79
2021/12/13 06:15:30;;;;;;;371.90;184.50;;;;;;;-7.85;96.34;99849.71;101221;1328;72709;-79
2021/12/13 06:18:05;;;;;;;336.40;164.50;;;;;;;-7.79;96.31;99850.18;101548;1322;61597;-78
2021/12/13 06:20:58;;;;;;;343.90;173.50;;;;;;;-7.72;96.32;99849.98;101952;1316;61387;-78
2021/12/13 06:23:28;;;;;;;345.50;176.60;;;;;;;-7.64;96.36;99854.45;101308;1327;75232;-77
2021/12/13 06:26:25;;;;;;;318.20;165.90;;;;;;;-7.59;96.35;99855.25;101265;1322;70337;-78
2021/12/13 06:28:58;;;;;;;315.40;158.20;;;;;;;-7.53;96.38;99863.30;100860;1328;74471;-78
2021/12/13 06:31:44;;;;;;;308.10;157.80;;;;;;;-7.50;96.46;99863.71;100793;1328;61370;-79
2021/12/13 06:34:15;;;;;;;316.00;164.00;;;;;;;-7.49;96.39;99862.34;100776;1328;61350;-79
2021/12/13 06:36:52;;;;;;;288.30;151.10;;;;;;;-7.48;96.37;99868.73;100849;1331;74732;-79
2021/12/13 06:39:28;;;;;;;271.80;145.20;;;;;;;-7.49;96.35;99875.63;100665;1333;69518;-79
2021/12/13 06:42:05;;;;;;;296.90;152.60;;;;;;;-7.53;96.20;99877.27;100629;1334;72301;-79
2021/12/13 06:44:45;;;;;;;291.50;155.10;;;;;;;-7.58;96.12;99872.67;99950;1326;1003002;-79
2021/12/13 06:47:19;;;;;;;290.80;153.50;;;;;;;-7.61;96.24;99874.21;100735;1328;61789;-80
2021/12/13 06:49:49;;;;;;;325.50;164.30;;;;;;;-7.61;96.17;99874.51;100000;1328;1016105;-79
2021/12/13 06:52:32;;;;;;;314.20;162.10;;;;;;;-7.59;96.26;99872.85;100956;1322;69270;-79
2021/12/13 06:55:11;;;;;;;322.90;173.30;;;;;;;-7.53;96.27;99876.77;101452;1328;74460;-79
2021/12/13 06:57:44;;;;;;;340.10;167.70;;;;;;;-7.47;96.31;99876.89;101310;1328;61613;-80
2021/12/13 07:00:20;;;;;;;341.40;171.20;;;;;;;-7.43;96.30;99878.52;101336;1323;61497;-79
2021/12/13 07:02:57;;;;;;;354.90;182.70;;;;;;;-7.38;96.40;99888.63;101945;1316;75181;-77
2021/12/13 07:05:30;;;;;;;337.80;177.80;;;;;;;-7.31;96.42;99888.77;102034;1316;69433;-78
2021/12/13 07:08:01;;;;;;;328.40;177.10;;;;;;;-7.26;96.42;99889.20;102586;1307;73425;-79
2021/12/13 07:10:39;;;;;;;322.40;170.60;;;;;;;-7.20;96.41;99894.66;102526;1301;61450;-79
2021/12/13 07:13:37;;;;;;;318.80;164.60;;;;;;;-7.14;96.21;99896.33;102674;1308;61430;-80
2021/12/13 07:16:04;;;;;;;314.50;162.70;;;;;;;-7.07;96.04;99898.88;101825;1316;75953;-80
2021/12/13 07:18:58;;;;;;;313.60;166.20;;;;;;;-6.99;96.10;99894.20;101985;1316;69583;-79
2021/12/13 07:21:29;;;;;;;307.30;165.10;;;;;;;-6.87;96.03;99900.80;101957;1316;73490;-79
2021/12/13 07:24:07;;;;;;;314.00;174.60;;;;;;;-6.73;96.14;99900.17;101895;1316;61375;-77
2021/12/13 07:26:49;;;;;;;344.30;185.50;;;;;;;-6.57;96.08;99905.45;101899;1316;61344;-78
2021/12/13 07:29:39;;;;;;;340.10;185.10;;;;;;;-6.45;95.97;99908.58;101876;1317;74324;-79
2021/12/13 07:32:35;;;;;;;329.10;184.20;;;;;;;-6.30;96.05;99911.59;101889;1316;69520;-79
2021/12/13 07:35:13;;;;;;;307.50;175.30;;;;;;;-6.17;96.00;99915.77;101812;1316;74288;-80
2021/12/13 07:37:55;;;;;;;326.50;181.30;;;;;;;-6.08;95.90;99918.84;101796;1316;61442;-81
2021/12/13 07:40:28;;;;;;;314.80;179.90;;;;;;;-5.99;95.71;99924.67;101979;1316;61394;-82
2021/12/13 07:43:30;;;;;;;311.10;172.00;;;;;;;-5.89;95.74;99923.39;101968;1316;73704;-79
2021/12/13 07:46:03;;;;;;;271.10;163.60;;;;;;;-5.75;95.81;99930.52;101453;1321;69050;-79
2021/12/13 07:48:41;;;;;;;336.80;211.10;;;;;;;-5.68;95.82;99928.89;101982;1317;73689;-79
2021/12/13 07:51:10;;;;;;;281.10;167.80;;;;;;;-5.65;95.97;99927.20;101949;1320;61376;-78
2021/12/13 07:53:37;;;;;;;293.10;178.20;;;;;;;-5.55;95.98;99927.67;102214;1312;61295;-81
2021/12/13 07:56:05;;;;;;;286.70;172.50;;;;;;;-5.43;95.98;99927.47;102680;1308;61334;-81
2021/12/13 07:58:45;;;;;;;299.50;181.40;;;;;;;-5.29;96.03;99927.11;102740;1308;69300;-79
2021/12/13 08:01:16;;;;;;;;;;;;;;;-5.11;96.04;99931.83;102673;1311;72244;-80
2021/12/13 08:03:51;;;;;;;287.50;165.90;;;;;;;-4.97;95.79;99932.85;102794;1307;61374;-79
2021/12/13 08:06:19;;;;;;;295.10;175.30;;;;;;;-4.86;95.75;99930.73;103038;1315;61324;-79
2021/12/13 08:08:56;;;;;;;294.00;167.30;;;;;;;-4.75;95.71;99929.79;103953;1307;76269;-79
2021/12/13 08:11:38;;;;;;;291.20;170.20;;;;;;;-4.62;95.65;99937.71;103502;1314;69302;-79
2021/12/13 08:14:05;;;;;;;278.40;163.00;;;;;;;-4.54;95.49;99938.48;102876;1311;72533;-76
2021/12/13 08:16:38;;;;;;;270.10;163.70;;;;;;;-4.46;95.49;99940.64;102497;1315;61418;-79
2021/12/13 08:19:16;;;;;;;267.10;155.30;;;;;;;-4.33;95.52;99937.62;102601;1313;61228;-81
2021/12/13 08:21:49;;;;;;;272.60;155.80;;;;;;;-4.17;95.44;99939.83;102617;1307;75484;-80
2021/12/13 08:24:21;;;;;;;266.70;157.00;;;;;;;-4.00;95.36;99941.00;102606;1314;67805;-80
2021/12/13 08:26:55;;;;;;;276.70;160.40;;;;;;;-3.87;95.18;99941.95;102323;1315;73358;-78
2021/12/13 08:29:31;;;;;;;246.60;150.10;;;;;;;-3.75;95.07;99945.84;102584;1308;61472;-79
2021/12/13 08:32:17;;;;;;;236.30;137.00;;;;;;;-3.70;94.87;99946.23;102608;1307;61298;-79
2021/12/13 08:34:51;;;;;;;248.80;149.30;;;;;;;-3.65;94.84;99949.55;102594;1308;75359;-78
2021/12/13 08:37:24;;;;;;;244.00;147.10;;;;;;;-3.58;94.92;99950.80;102754;1311;68930;-79
2021/12/13 08:40:11;;;;;;;244.90;145.10;;;;;;;-3.52;94.87;99953.64;102555;1307;74272;-78
2021/12/13 08:42:42;;;;;;;251.70;149.30;;;;;;;-3.46;94.88;99955.21;102342;1314;61484;-77
2021/12/13 08:45:19;;;;;;;248.10;146.30;;;;;;;-3.43;94.97;99952.45;102574;1313;61842;-78
2021/12/13 08:47:59;;;;;;;242.50;144.00;;;;;;;-3.41;94.99;99954.53;102565;1307;75757;-79
2021/12/13 08:50:35;;;;;;;233.10;137.00;;;;;;;-3.44;94.98;99955.39;102600;1307;69469;-81
2021/12/13 08:53:11;;;;;;;224.40;136.40;;;;;;;-3.48;94.91;99956.26;102585;1307;72417;-79
2021/12/13 08:55:44;;;;;;;232.80;139.20;;;;;;;-3.50;95.00;99954.32;102558;1308;61295;-79
2021/12/13 08:58:17;;;;;;;227.30;140.30;;;;;;;-3.48;95.10;99952.43;102591;1307;61341;-79
2021/12/13 09:00:58;;;;;;;218.40;133.90;;;;;;;-3.41;95.04;99948.29;102603;1311;76425;-79
2021/12/13 09:03:36;;;;;;;204.00;124.50;;;;;;;-3.35;94.89;99949.36;102571;1311;69474;-80
2021/12/13 09:06:18;;;;;;;205.90;128.40;;;;;;;-3.29;94.96;99947.48;102579;1308;74744;-79
2021/12/13 09:08:50;;;;;;;222.70;133.80;;;;;;;-3.16;95.07;99950.14;102634;1307;61399;-80
2021/12/13 09:11:20;;;;;;;220.20;136.60;;;;;;;-3.06;95.25;99954.70;102621;1307;61385;-79
2021/12/13 09:14:01;;;;;;;217.30;132.60;;;;;;;-2.99;95.20;99953.50;102375;1315;76412;-78
2021/12/13 09:17:10;;;;;;;209.20;129.60;;;;;;;-2.94;95.08;99947.26;102562;1311;70058;-79
2021/12/13 09:19:46;;;;;;;213.20;127.30;;;;;;;-2.87;94.94;99944.66;102571;1308;74497;-80
2021/12/13 09:22:12;;;;;;;202.10;124.70;;;;;;;-2.80;95.00;99940.52;102593;1307;61328;-79
2021/12/13 09:25:00;;;;;;;190.60;121.80;;;;;;;-2.70;95.03;99938.44;102540;1311;61221;-79
2021/12/13 09:27:35;;;;;;;186.00;116.50;;;;;;;-2.57;94.83;99936.55;102624;1314;75096;-80
2021/12/13 09:30:11;;;;;;;189.70;118.80;;;;;;;-2.48;94.76;99932.73;102588;1311;69311;-80
2021/12/13 09:32:53;;;;;;;192.00;120.00;;;;;;;-2.38;94.76;99928.04;102565;1314;74165;-79
2021/12/13 09:35:43;;;;;;;198.70;126.60;;;;;;;-2.26;94.77;99924.56;102573;1308;61373;-78
2021/12/13 09:38:28;;;;;;;196.10;122.60;;;;;;;-2.15;94.62;99924.56;102609;1311;62001;-80
2021/12/13 09:41:04;;;;;;;196.20;121.00;;;;;;;-2.04;94.54;99924.20;102597;1311;74524;-79
2021/12/13 09:43:40;;;;;;;210.30;130.10;;;;;;;-1.93;94.22;99929.06;102614;1311;69417;-79
2021/12/13 09:46:08;;;;;;;204.30;128.20;;;;;;;-1.89;94.12;99924.70;102560;1313;74361;-78
2021/12/13 09:48:40;;;;;;;188.50;120.60;;;;;;;-1.80;94.12;99922.77;102303;1307;61351;-78
2021/12/13 09:51:18;;;;;;;179.80;118.80;;;;;;;-1.67;94.12;99919.45;102547;1314;61867;-79
2021/12/13 09:53:50;;;;;;;189.70;118.70;;;;;;;-1.59;93.79;99918.19;102691;1314;75227;-79
2021/12/13 09:56:20;;;;;;;180.80;116.90;;;;;;;-1.51;93.93;99914.68;102744;1314;69311;-79
2021/12/13 09:58:55;;;;;;;168.80;114.40;;;;;;;-1.43;93.82;99908.21;102730;1313;73374;-80
2021/12/13 10:01:27;;;;;;;167.80;107.60;;;;;;;-1.41;93.73;99901.23;102555;1314;61326;-78
2021/12/13 10:04:25;;;;;;;171.70;109.90;;;;;;;-1.39;93.73;99900.36;102624;1314;61321;-79
2021/12/13 10:07:06;;;;;;;190.10;119.30;;;;;;;-1.38;93.64;99911.50;102324;1315;75218;-80
2021/12/13 10:09:34;;;;;;;;;;;;;;;-1.32;93.81;99914.27;102627;1308;69783;-78
2021/12/13 10:12:15;;;;;;;196.10;124.70;;;;;;;-1.21;93.93;99914.58;102596;1307;73915;-78
2021/12/13 10:14:47;;;;;;;192.70;122.00;;;;;;;-1.14;93.76;99917.85;102668;1307;61317;-77
2021/12/13 10:17:17;;;;;;;190.70;122.80;;;;;;;-1.06;93.68;99918.85;102593;1314;61347;-79
2021/12/13 10:19:50;;;;;;;182.90;117.30;;;;;;;-0.98;93.60;99917.95;102742;1314;75321;-78
2021/12/13 10:22:27;;;;;;;178.20;112.40;;;;;;;-0.90;93.66;99912.67;102809;1307;70332;-77
2021/12/13 10:25:03;;;;;;;175.50;111.50;;;;;;;-0.80;93.20;99909.48;102641;1314;73529;-79
2021/12/13 10:27:32;;;;;;;184.40;116.70;;;;;;;-0.69;93.25;99909.40;102655;1310;61289;-79
2021/12/13 10:30:02;;;;;;;184.50;120.00;;;;;;;-0.55;93.28;99910.19;102680;1314;61924;-80
2021/12/13 10:32:36;;;;;;;187.70;121.30;;;;;;;-0.47;93.20;99905.75;102599;1307;75502;-79
2021/12/13 10:35:15;;;;;;;187.70;119.30;;;;;;;-0.43;93.09;99897.34;102541;1314;69256;-77
2021/12/13 10:37:48;;;;;;;197.60;123.90;;;;;;;-0.40;93.00;99900.80;102560;1308;72710;-79
2021/12/13 10:40:21;;;;;;;196.50;124.50;;;;;;;-0.36;92.95;99899.39;102279;1313;61215;-79
2021/12/13 10:42:56;;;;;;;189.80;122.00;;;;;;;-0.28;92.96;99898.09;102578;1308;61903;-80
2021/12/13 10:45:31;;;;;;;186.60;119.00;;;;;;;-0.20;92.65;99897.67;102545;1314;75185;-80
2021/12/13 10:48:03;;;;;;;188.70;119.70;;;;;;;-0.18;92.39;99896.96;102567;1307;69903;-77
2021/12/13 10:50:45;;;;;;;176.10;115.70;;;;;;;-0.13;92.25;99900.58;102534;1307;73072;-79
2021/12/13 10:53:16;;;;;;;166.70;106.90;;;;;;;-0.02;92.17;99901.36;102562;1314;61287;-79
2021/12/13 10:55:51;;;;;;;168.70;107.00;;;;;;;0.17;92.25;99899.60;102561;1314;61368;-79
2021/12/13 10:58:23;;;;;;;149.70;101.50;;;;;;;0.40;92.04;99895.85;102640;1310;74787;-80
2021/12/13 11:00:55;;;;;;;160.20;103.50;;;;;;;0.66;91.55;99889.43;102625;1314;69628;-78
2021/12/13 11:03:28;;;;;;;161.00;105.60;;;;;;;0.93;91.51;99887.33;102623;1314;74549;-80
2021/12/13 11:05:56;;;;;;;161.20;108.00;;;;;;;1.25;91.39;99885.83;102582;1310;61333;-79
2021/12/13 11:08:24;;;;;;;160.40;109.60;;;;;;;1.58;91.29;99882.87;102626;1307;61060;-79
2021/12/13 11:10:59;;;;;;;164.70;113.30;;;;;;;1.88;91.10;99884.84;102643;1307;75508;-80
2021/12/13 11:13:30;;;;;;;169.10;115.30;;;;;;;2.11;90.65;99883.36;102602;1313;69242;-81
2021/12/13 11:16:01;;;;;;;179.10;121.50;;;;;;;2.18;90.25;99880.95;102697;1314;72919;-79
2021/12/13 11:18:28;;;;;;;175.10;119.00;;;;;;;2.17;89.88;99883.63;102307;1315;61457;-79
2021/12/13 11:21:11;;;;;;;183.10;121.10;;;;;;;2.08;89.63;99884.30;102561;1314;61316;-79
2021/12/13 11:23:38;;;;;;;181.40;119.50;;;;;;;2.02;89.55;99886.86;102584;1314;75468;-80
2021/12/13 11:26:08;;;;;;;175.30;120.70;;;;;;;2.00;89.46;99883.92;102585;1310;70487;-79
2021/12/13 11:28:37;;;;;;;;;;;;;;;1.99;89.52;99887.10;102626;1315;73284;-78
2021/12/13 11:31:28;;;;;;;174.20;116.80;;;;;;;1.97;89.32;99889.05;102696;1314;61644;-80
2021/12/13 11:34:01;;;;;;;167.60;111.70;;;;;;;2.02;89.43;99892.29;102590;1307;61357;-80
2021/12/13 11:37:20;;;;;;;171.50;116.30;;;;;;;2.12;89.39;99894.04;102593;1307;75579;-80
2021/12/13 11:40:06;;;;;;;166.80;111.90;;;;;;;2.22;89.15;99892.13;101987;1317;70187;-80
2021/12/13 11:43:06;;;;;;;162.30;110.40;;;;;;;2.22;88.83;99890.70;101801;1320;72966;-81
2021/12/13 11:45:54;;;;;;;162.60;109.00;;;;;;;2.24;88.63;99882.27;101887;1316;62047;-79